Time;durP1;ratioP1;P1;durP2;ratioP2;P2;SDS_P1;SDS_P2;PMS_P1;PMS_P2;Temp;Humidity;BMP_temperature;BMP_pressure;BME280_temperature;BME280_humidity;BME280_pressure;Samples;Min_cycle;Max_cycle;Signal;HPM_P1;HPM_P2
2023/01/29 00:01:05;;;;;;;11.40;8.27;;;2.50;99.90;;;;;;4983681;28;20038;-57
2023/01/29 00:03:32;;;;;;;13.88;8.13;;;3.00;99.90;;;;;;4984837;28;20211;-57
2023/01/29 00:05:58;;;;;;;12.52;9.18;;;3.10;99.90;;;;;;4985254;28;20050;-57
2023/01/29 00:08:24;;;;;;;12.73;8.88;;;2.70;99.90;;;;;;4984476;28;20160;-57
2023/01/29 00:10:49;;;;;;;16.23;9.30;;;2.80;99.90;;;;;;4985400;28;20038;-57
2023/01/29 00:13:16;;;;;;;12.77;8.43;;;3.20;99.90;;;;;;4984682;28;20066;-57
2023/01/29 00:15:42;;;;;;;12.68;9.38;;;3.40;99.90;;;;;;4983999;28;20597;-58
2023/01/29 00:18:08;;;;;;;16.92;9.32;;;4.00;99.90;;;;;;4966448;28;20315;-58
2023/01/29 00:20:34;;;;;;;13.63;9.18;;;3.20;99.90;;;;;;4984920;28;20042;-57
2023/01/29 00:22:59;;;;;;;13.98;10.13;;;2.80;99.90;;;;;;4984479;28;20042;-58
2023/01/29 00:25:25;;;;;;;14.30;9.60;;;3.50;99.90;;;;;;4984390;28;20057;-58
2023/01/29 00:27:51;;;;;;;16.58;9.82;;;2.80;99.90;;;;;;4984879;28;20030;-58
2023/01/29 00:30:18;;;;;;;13.68;9.27;;;3.10;99.90;;;;;;4984021;28;20271;-58
2023/01/29 00:32:44;;;;;;;14.57;10.07;;;3.60;99.90;;;;;;4983974;28;20053;-57
2023/01/29 00:35:10;;;;;;;12.77;9.32;;;3.60;99.90;;;;;;4967451;28;20560;-58
2023/01/29 00:37:36;;;;;;;14.95;9.65;;;3.20;99.90;;;;;;4984301;28;20490;-57
2023/01/29 00:40:03;;;;;;;15.63;10.40;;;3.10;99.90;;;;;;4984600;28;20137;-59
2023/01/29 00:45:13;;;;;;;14.48;10.35;;;3.30;99.90;;;;;;4983338;28;20550;-57
2023/01/29 00:47:38;;;;;;;13.85;10.35;;;2.90;99.90;;;;;;4984342;28;20120;-58
2023/01/29 00:50:08;;;;;;;15.68;10.80;;;3.40;99.90;;;;;;4966749;28;20105;-57
2023/01/29 00:52:35;;;;;;;16.55;10.80;;;3.60;99.90;;;;;;4984298;28;20081;-57
2023/01/29 00:55:02;;;;;;;16.20;11.07;;;2.90;99.90;;;;;;4984256;28;20141;-57
2023/01/29 00:57:31;;;;;;;20.23;11.63;;;3.40;99.90;;;;;;4984037;28;20046;-57
2023/01/29 00:59:56;;;;;;;17.08;11.85;;;3.40;99.90;;;;;;4983567;28;20081;-57
2023/01/29 01:05:19;;;;;;;19.30;12.77;;;3.20;99.90;;;;;;4984008;28;20093;-58
2023/01/29 01:07:46;;;;;;;17.92;12.73;;;3.20;99.90;;;;;;4983839;28;20046;-59
2023/01/29 01:10:21;;;;;;;16.15;12.43;;;3.50;99.90;;;;;;4983705;28;20050;-57
2023/01/29 01:12:48;;;;;;;;;;;3.60;99.90;;;;;;4984214;28;20530;-58
2023/01/29 01:15:13;;;;;;;16.85;12.82;;;2.90;99.90;;;;;;4983364;28;20323;-57
2023/01/29 01:17:39;;;;;;;21.23;13.73;;;4.20;99.90;;;;;;4984169;28;20053;-58
2023/01/29 01:20:05;;;;;;;20.70;14.00;;;3.00;99.90;;;;;;4983980;28;20046;-58
2023/01/29 01:22:31;;;;;;;19.88;14.20;;;3.00;99.90;;;;;;4983266;28;20404;-58
2023/01/29 01:24:56;;;;;;;20.40;14.43;;;3.10;99.90;;;;;;4983924;28;20513;-59
2023/01/29 01:27:22;;;;;;;20.85;14.55;;;3.20;99.90;;;;;;4984082;28;20050;-56
2023/01/29 01:29:48;;;;;;;19.70;14.50;;;3.20;99.90;;;;;;4983344;28;20046;-57
2023/01/29 01:32:14;;;;;;;20.42;15.07;;;3.50;99.90;;;;;;4983842;28;20050;-58
2023/01/29 01:34:40;;;;;;;19.98;15.30;;;3.70;99.90;;;;;;4984096;28;20042;-57
2023/01/29 01:37:06;;;;;;;21.35;15.43;;;3.70;99.90;;;;;;4966251;28;20108;-57
2023/01/29 01:39:31;;;;;;;20.02;15.32;;;3.70;99.90;;;;;;4983574;28;20239;-58
2023/01/29 01:41:57;;;;;;;20.90;15.73;;;3.10;99.90;;;;;;4983786;28;20117;-56
2023/01/29 01:44:57;;;;;;;22.20;15.45;;;3.20;99.90;;;;;;4983328;28;20093;-57
2023/01/29 01:47:38;;;;;;;19.90;15.90;;;3.10;99.90;;;;;;4984077;28;20073;-58
2023/01/29 01:50:36;;;;;;;24.20;16.73;;;3.20;99.90;;;;;;4983068;28;20105;-57
2023/01/29 01:53:09;;;;;;;20.83;14.57;;;3.10;99.90;;;;;;4972075;28;20062;-57
2023/01/29 01:55:40;;;;;;;22.80;17.10;;;3.10;99.90;;;;;;4966336;28;20046;-58
2023/01/29 01:58:11;;;;;;;26.98;18.27;;;3.60;99.90;;;;;;4983841;28;20046;-57
2023/01/29 02:00:38;;;;;;;21.17;16.70;;;3.20;99.90;;;;;;4964966;28;20047;-58
2023/01/29 02:11:37;;;;;;;25.75;17.63;;;3.10;99.90;;;;;;4983000;28;20118;-56
2023/01/29 02:14:03;;;;;;;24.52;17.60;;;3.00;99.90;;;;;;4983059;28;20303;-58
2023/01/29 02:16:29;;;;;;;26.88;18.42;;;3.80;99.90;;;;;;4981115;28;20157;-60
2023/01/29 02:18:55;;;;;;;24.60;18.23;;;3.80;99.90;;;;;;4950695;28;20047;-57
2023/01/29 02:21:43;;;;;;;22.30;17.27;;;4.20;99.90;;;;;;4967492;28;20129;-57
2023/01/29 02:24:08;;;;;;;24.50;18.45;;;3.80;99.90;;;;;;4931048;29;20452;-58
2023/01/29 02:26:40;;;;;;;24.73;19.38;;;3.90;99.90;;;;;;4948423;28;20094;-57
2023/01/29 02:29:32;;;;;;;23.85;18.80;;;3.80;99.90;;;;;;4947325;29;20073;-57
2023/01/29 02:32:29;;;;;;;26.35;18.60;;;3.90;99.90;;;;;;4931242;29;20062;-57
2023/01/29 02:35:30;;;;;;;26.02;19.33;;;3.80;99.90;;;;;;4948295;29;20050;-58
2023/01/29 02:37:56;;;;;;;28.80;19.92;;;3.50;99.90;;;;;;4914965;29;20121;-57
2023/01/29 02:40:27;;;;;;;26.92;19.75;;;3.20;99.90;;;;;;4948154;29;20039;-57
2023/01/29 02:43:16;;;;;;;30.67;20.15;;;3.10;99.90;;;;;;4947575;29;20043;-58
2023/01/29 02:46:14;;;;;;;26.88;20.60;;;3.50;99.90;;;;;;4947004;28;20050;-57
2023/01/29 02:49:16;;;;;;;29.20;21.08;;;3.80;99.90;;;;;;4947607;29;20404;-57
2023/01/29 02:52:12;;;;;;;32.05;21.70;;;3.60;99.90;;;;;;4882229;29;20094;-58
2023/01/29 02:55:11;;;;;;;29.08;22.35;;;3.10;99.90;;;;;;4947429;29;20078;-57
2023/01/29 02:57:41;;;;;;;31.48;21.98;;;3.60;99.90;;;;;;4930039;28;20058;-58
2023/01/29 03:00:12;;;;;;;30.98;23.42;;;3.30;99.90;;;;;;4946662;28;20058;-58
2023/01/29 03:02:47;;;;;;;34.28;23.70;;;3.30;99.90;;;;;;4947575;29;20511;-58
2023/01/29 03:05:24;;;;;;;31.05;23.88;;;3.50;99.90;;;;;;4947320;29;20515;-58
2023/01/29 03:07:54;;;;;;;35.00;24.65;;;3.90;99.90;;;;;;4948008;28;20083;-58
2023/01/29 03:10:41;;;;;;;32.08;25.35;;;3.30;99.90;;;;;;4947063;29;20526;-58
2023/01/29 03:13:17;;;;;;;34.45;25.80;;;3.80;99.90;;;;;;4947150;28;20452;-58
2023/01/29 03:16:00;;;;;;;34.83;25.05;;;3.10;99.90;;;;;;4946749;29;20420;-58
2023/01/29 03:18:31;;;;;;;33.83;26.50;;;3.50;99.90;;;;;;4930105;29;20055;-58
2023/01/29 03:21:49;;;;;;;36.60;27.83;;;3.60;99.90;;;;;;4947120;29;20039;-58
2023/01/29 03:32:09;;;;;;;39.22;28.92;;;3.30;99.90;;;;;;4946966;29;20055;-57
2023/01/29 03:34:43;;;;;;;37.28;29.75;;;3.70;99.90;;;;;;4946531;29;20054;-58
2023/01/29 03:37:33;;;;;;;37.10;28.27;;;3.50;99.90;;;;;;4946872;28;20516;-58
2023/01/29 03:40:01;;;;;;;34.42;27.90;;;3.40;99.90;;;;;;4947171;29;20460;-57
2023/01/29 03:43:09;;;;;;;35.20;26.75;;;2.90;99.90;;;;;;4946933;29;20451;-57
2023/01/29 03:45:43;;;;;;;33.97;26.65;;;3.50;99.90;;;;;;4913074;29;20093;-58
2023/01/29 03:48:24;;;;;;;35.85;28.33;;;2.80;99.90;;;;;;4946502;28;20046;-57
2023/01/29 03:51:10;;;;;;;33.17;24.52;;;2.80;99.90;;;;;;4929731;29;20441;-58
2023/01/29 03:53:47;;;;;;;36.35;27.63;;;2.90;99.90;;;;;;4946119;29;20122;-59
2023/01/29 03:56:44;;;;;;;35.88;27.38;;;2.80;99.90;;;;;;4929736;29;20058;-57
2023/01/29 03:59:35;;;;;;;30.67;24.92;;;3.10;99.90;;;;;;4945673;29;20553;-57
2023/01/29 04:02:05;;;;;;;32.10;24.75;;;3.50;99.90;;;;;;4937088;28;20059;-58
2023/01/29 04:04:35;;;;;;;31.70;25.75;;;3.30;99.90;;;;;;4946320;28;20175;-57
2023/01/29 04:07:12;;;;;;;33.65;26.08;;;3.80;99.90;;;;;;4929178;29;20043;-57
2023/01/29 04:10:13;;;;;;;37.60;25.95;;;3.30;99.90;;;;;;4945928;28;20039;-57
2023/01/29 04:12:47;;;;;;;30.73;24.50;;;3.60;99.90;;;;;;4934894;28;20047;-58
2023/01/29 04:15:15;;;;;;;32.07;25.27;;;3.80;99.90;;;;;;4960262;28;20058;-56
2023/01/29 04:17:46;;;;;;;32.90;24.88;;;3.20;99.90;;;;;;4945423;29;20291;-57
2023/01/29 04:20:12;;;;;;;32.67;25.88;;;3.00;99.90;;;;;;4946311;29;20047;-58
2023/01/29 04:22:38;;;;;;;34.05;24.52;;;3.40;99.90;;;;;;4946332;28;20126;-58
2023/01/29 04:25:14;;;;;;;34.17;25.00;;;3.80;99.90;;;;;;4945948;29;20055;-57
2023/01/29 04:28:01;;;;;;;34.17;25.00;;;3.50;99.90;;;;;;4945943;29;20083;-57
2023/01/29 04:30:55;;;;;;;31.55;24.20;;;3.20;99.90;;;;;;4944725;29;20287;-58
2023/01/29 04:33:21;;;;;;;34.10;25.25;;;3.30;99.90;;;;;;4918646;29;20086;-57
2023/01/29 04:36:16;;;;;;;31.58;24.80;;;3.20;99.90;;;;;;4945722;29;20146;-57
2023/01/29 04:38:44;;;;;;;30.10;24.83;;;3.20;99.90;;;;;;4945528;28;20054;-58
2023/01/29 04:41:31;;;;;;;33.75;24.77;;;3.20;99.90;;;;;;4945063;28;20062;-57
2023/01/29 04:44:32;;;;;;;32.55;24.60;;;3.20;99.90;;;;;;4927887;29;20055;-58
2023/01/29 04:47:14;;;;;;;32.63;24.38;;;3.40;99.90;;;;;;4904456;28;20481;-57
2023/01/29 04:50:09;;;;;;;35.22;25.55;;;3.70;99.90;;;;;;4945176;28;20082;-57
2023/01/29 04:52:41;;;;;;;35.28;25.52;;;3.90;99.90;;;;;;4945467;29;20055;-58
2023/01/29 04:55:20;;;;;;;36.65;27.05;;;3.20;99.90;;;;;;4946149;29;20524;-58
2023/01/29 04:58:13;;;;;;;35.15;25.75;;;3.60;99.90;;;;;;4945667;28;20460;-58
2023/01/29 05:00:42;;;;;;;37.70;27.55;;;4.00;99.90;;;;;;4945606;29;20047;-58
2023/01/29 05:03:10;;;;;;;35.10;25.95;;;3.40;99.90;;;;;;4945586;28;20054;-58
2023/01/29 05:05:39;;;;;;;40.63;27.58;;;3.10;99.90;;;;;;4946158;28;20206;-58
2023/01/29 05:08:06;;;;;;;37.33;27.80;;;3.70;99.90;;;;;;4928341;29;20055;-57
2023/01/29 05:10:33;;;;;;;40.15;28.52;;;4.00;99.90;;;;;;4945867;28;20555;-59
2023/01/29 05:13:05;;;;;;;40.55;28.17;;;3.70;99.90;;;;;;4945119;29;20059;-57
2023/01/29 05:15:47;;;;;;;40.58;29.27;;;3.80;99.90;;;;;;4944629;29;20134;-58
2023/01/29 05:18:13;;;;;;;40.03;29.88;;;3.90;99.90;;;;;;4944870;29;20087;-58
2023/01/29 05:20:41;;;;;;;43.65;30.20;;;3.40;99.90;;;;;;4945662;29;20090;-58
2023/01/29 05:23:18;;;;;;;41.80;29.30;;;2.90;99.90;;;;;;4945561;28;20051;-58
2023/01/29 05:25:45;;;;;;;45.85;30.80;;;2.90;99.90;;;;;;4945288;29;20122;-58
2023/01/29 05:28:17;;;;;;;44.53;30.02;;;3.10;99.90;;;;;;4944567;29;20059;-58
2023/01/29 05:30:45;;;;;;;43.65;30.65;;;3.30;99.90;;;;;;4944564;29;20047;-57
2023/01/29 05:33:31;;;;;;;44.05;30.70;;;3.80;99.90;;;;;;4945677;29;20040;-59
2023/01/29 05:35:59;;;;;;;45.70;30.23;;;3.70;99.90;;;;;;4944269;29;20067;-58
2023/01/29 05:38:25;;;;;;;44.08;30.55;;;2.80;99.90;;;;;;4945008;29;20413;-57
2023/01/29 05:40:51;;;;;;;46.67;31.38;;;3.00;99.90;;;;;;4945292;29;20185;-57
2023/01/29 05:43:21;;;;;;;47.55;32.25;;;2.80;99.90;;;;;;4944111;29;20055;-56
2023/01/29 05:45:59;;;;;;;47.88;31.63;;;3.70;99.90;;;;;;4927912;28;20156;-56
2023/01/29 05:48:27;;;;;;;45.80;31.27;;;3.70;99.90;;;;;;4945287;29;20039;-57
2023/01/29 05:50:58;;;;;;;39.25;24.05;;;2.90;99.90;;;;;;4944328;29;20067;-57
2023/01/29 05:53:24;;;;;;;48.55;32.55;;;3.50;99.90;;;;;;4947854;28;20420;-57
2023/01/29 05:55:49;;;;;;;49.47;32.80;;;3.30;99.90;;;;;;4948829;28;20299;-57
2023/01/29 05:58:15;;;;;;;50.05;33.40;;;3.00;99.90;;;;;;4947746;29;20039;-57
2023/01/29 06:00:41;;;;;;;48.60;32.38;;;3.60;99.90;;;;;;4949411;29;20078;-58
2023/01/29 06:03:06;;;;;;;48.65;32.97;;;3.20;99.90;;;;;;4948888;29;20042;-57
2023/01/29 06:05:32;;;;;;;42.17;28.95;;;3.70;99.90;;;;;;4948346;29;20096;-58
2023/01/29 06:07:58;;;;;;;46.40;31.63;;;3.20;99.90;;;;;;4948952;28;20102;-57
2023/01/29 06:10:23;;;;;;;47.28;32.22;;;3.70;99.90;;;;;;4948286;29;20086;-57
2023/01/29 06:12:49;;;;;;;46.85;34.35;;;3.20;99.90;;;;;;4948518;29;20134;-58
2023/01/29 06:15:14;;;;;;;47.15;32.33;;;3.00;99.90;;;;;;4947248;28;20578;-57
2023/01/29 06:17:41;;;;;;;48.58;33.28;;;2.90;99.90;;;;;;4948951;29;20047;-57
2023/01/29 06:20:07;;;;;;;47.30;32.53;;;3.60;99.90;;;;;;4948262;29;20047;-57
2023/01/29 06:22:33;;;;;;;45.90;32.05;;;3.50;99.90;;;;;;4930627;29;20047;-58
2023/01/29 06:24:59;;;;;;;46.05;30.95;;;3.70;99.90;;;;;;4947717;28;20093;-57
2023/01/29 06:27:25;;;;;;;45.10;30.17;;;3.70;99.90;;;;;;4948365;29;20319;-57
2023/01/29 06:29:50;;;;;;;41.72;30.13;;;2.80;99.90;;;;;;4929545;28;20138;-57
2023/01/29 06:32:16;;;;;;;39.25;28.55;;;3.60;99.90;;;;;;4930981;29;20058;-59
2023/01/29 06:34:42;;;;;;;41.10;29.80;;;3.00;99.90;;;;;;4931121;29;20050;-56
2023/01/29 06:37:07;;;;;;;37.72;26.52;;;3.60;99.90;;;;;;4947592;29;20425;-58
2023/01/29 06:39:33;;;;;;;38.97;29.15;;;3.00;99.90;;;;;;4947377;29;20090;-58
2023/01/29 06:41:59;;;;;;;39.42;29.33;;;3.00;99.90;;;;;;4947829;28;20079;-58
2023/01/29 06:44:25;;;;;;;38.40;28.13;;;3.20;99.90;;;;;;4947699;28;20555;-58
2023/01/29 06:46:50;;;;;;;42.15;29.80;;;3.30;99.90;;;;;;4947033;29;20082;-58
2023/01/29 06:49:16;;;;;;;38.40;28.55;;;3.10;99.90;;;;;;4947772;28;20054;-59
2023/01/29 06:51:41;;;;;;;40.45;29.20;;;4.30;99.90;;;;;;4947737;28;20042;-58
2023/01/29 06:54:09;;;;;;;31.05;22.88;;;3.90;99.90;;;;;;4947534;29;20494;-58
2023/01/29 06:56:34;;;;;;;37.80;27.33;;;4.00;99.90;;;;;;4930179;29;20055;-58
2023/01/29 06:59:00;;;;;;;36.83;24.60;;;3.40;99.90;;;;;;4947052;28;20488;-58
2023/01/29 07:01:26;;;;;;;35.97;27.63;;;4.00;99.90;;;;;;4929911;29;20047;-58
2023/01/29 07:03:51;;;;;;;37.17;27.92;;;3.90;99.90;;;;;;4946864;28;20073;-57
2023/01/29 07:06:18;;;;;;;39.47;28.92;;;3.20;99.90;;;;;;4947564;29;20074;-58
2023/01/29 07:08:43;;;;;;;33.45;23.38;;;3.70;99.90;;;;;;4947567;28;20149;-58
2023/01/29 07:11:09;;;;;;;38.08;29.13;;;3.60;99.90;;;;;;4946457;28;20527;-56
2023/01/29 07:13:35;;;;;;;36.40;27.92;;;3.50;99.90;;;;;;4946671;29;20126;-57
2023/01/29 07:16:02;;;;;;;37.38;29.13;;;3.80;99.90;;;;;;4947214;29;20124;-58
2023/01/29 07:18:28;;;;;;;38.90;28.52;;;3.60;99.90;;;;;;4946652;28;20147;-57
2023/01/29 07:20:55;;;;;;;39.42;28.33;;;3.90;99.90;;;;;;4946958;29;20035;-57
2023/01/29 07:23:21;;;;;;;34.35;27.75;;;3.70;99.90;;;;;;4947233;29;20039;-57
2023/01/29 07:25:48;;;;;;;37.35;27.08;;;3.50;99.90;;;;;;4929905;29;20066;-59
2023/01/29 07:28:15;;;;;;;39.10;29.23;;;3.50;99.90;;;;;;4947022;29;20922;-58
2023/01/29 07:30:41;;;;;;;33.15;24.63;;;3.20;99.90;;;;;;4947093;29;20075;-58
2023/01/29 07:33:08;;;;;;;36.67;28.85;;;3.80;99.90;;;;;;4947320;28;20043;-57
2023/01/29 07:35:42;;;;;;;39.60;29.98;;;3.80;99.90;;;;;;4946549;28;20437;-58
2023/01/29 07:38:09;;;;;;;39.95;29.33;;;4.10;99.90;;;;;;4947144;29;20051;-58
2023/01/29 07:40:35;;;;;;;30.23;21.38;;;4.50;99.90;;;;;;4946667;28;20039;-58
2023/01/29 07:43:02;;;;;;;38.38;31.00;;;3.50;99.90;;;;;;4945947;29;20364;-58
2023/01/29 07:45:29;;;;;;;35.50;28.92;;;3.90;99.90;;;;;;4947039;29;20158;-58
2023/01/29 07:47:55;;;;;;;35.45;27.85;;;3.60;99.90;;;;;;4946877;29;20148;-58
2023/01/29 07:50:25;;;;;;;35.05;28.73;;;3.70;99.90;;;;;;4960847;28;20420;-57
2023/01/29 07:52:52;;;;;;;38.17;29.55;;;4.40;99.90;;;;;;4946879;29;20051;-56
2023/01/29 07:55:18;;;;;;;38.72;29.65;;;4.00;99.90;;;;;;4946893;29;20058;-57
2023/01/29 07:57:44;;;;;;;30.73;19.55;;;3.70;99.90;;;;;;4945771;29;20509;-58
2023/01/29 08:00:10;;;;;;;32.85;23.88;;;3.90;99.90;;;;;;4946460;29;20047;-57
2023/01/29 08:02:36;;;;;;;33.05;25.05;;;3.70;99.90;;;;;;4946380;29;20058;-57
2023/01/29 08:05:02;;;;;;;34.72;28.45;;;3.50;99.90;;;;;;4945772;29;20443;-57
2023/01/29 08:07:28;;;;;;;37.95;28.83;;;3.30;99.90;;;;;;4946055;28;20046;-58
2023/01/29 08:09:54;;;;;;;37.55;28.65;;;3.40;99.90;;;;;;4946688;29;20119;-58
2023/01/29 08:12:19;;;;;;;35.58;30.50;;;3.20;99.90;;;;;;4928427;29;20111;-59
2023/01/29 08:14:45;;;;;;;33.80;28.42;;;3.40;99.90;;;;;;4945408;28;20051;-56
2023/01/29 08:17:12;;;;;;;39.75;31.08;;;3.50;99.90;;;;;;4946114;29;20039;-57
2023/01/29 08:19:38;;;;;;;38.83;25.92;;;4.40;99.90;;;;;;4946107;29;20122;-58
2023/01/29 08:22:04;;;;;;;34.80;26.55;;;3.50;99.90;;;;;;4945853;29;20135;-58
2023/01/29 08:24:30;;;;;;;35.85;29.48;;;4.50;99.90;;;;;;4946146;28;20649;-58
2023/01/29 08:26:56;;;;;;;36.42;29.55;;;4.00;99.90;;;;;;4946276;28;20035;-58
2023/01/29 08:29:21;;;;;;;38.53;29.80;;;4.50;99.90;;;;;;4944532;29;20170;-57
2023/01/29 08:31:47;;;;;;;35.83;28.15;;;4.20;99.90;;;;;;4946359;29;20495;-58
2023/01/29 08:34:13;;;;;;;35.60;27.60;;;4.30;99.90;;;;;;4945757;29;20058;-57
2023/01/29 08:36:39;;;;;;;38.28;29.38;;;4.00;99.90;;;;;;4945413;29;20054;-58
2023/01/29 08:39:05;;;;;;;35.17;28.80;;;4.10;99.90;;;;;;4945619;29;20046;-56
2023/01/29 08:41:30;;;;;;;39.75;31.08;;;4.30;99.90;;;;;;4945511;28;20400;-58
2023/01/29 08:43:56;;;;;;;35.97;30.13;;;4.10;99.90;;;;;;4944663;28;20047;-58
2023/01/29 08:46:23;;;;;;;30.48;22.40;;;3.40;99.90;;;;;;4945178;29;20071;-58
2023/01/29 08:48:48;;;;;;;37.60;30.23;;;3.60;99.90;;;;;;4945748;29;20229;-58
2023/01/29 08:51:14;;;;;;;34.88;28.00;;;3.60;99.90;;;;;;4945833;29;20046;-58
2023/01/29 08:53:39;;;;;;;35.67;29.02;;;3.50;99.90;;;;;;4947579;28;20047;-58
2023/01/29 08:56:05;;;;;;;36.22;29.33;;;3.50;99.90;;;;;;4984425;28;20055;-57
2023/01/29 08:58:31;;;;;;;38.63;31.13;;;3.80;99.90;;;;;;4983550;28;20049;-58
2023/01/29 09:01:08;;;;;;;35.28;29.02;;;3.90;99.90;;;;;;4965946;28;20073;-58
2023/01/29 09:03:34;;;;;;;35.08;27.42;;;4.10;99.90;;;;;;4984201;28;20104;-57
2023/01/29 09:06:00;;;;;;;37.25;30.27;;;3.80;99.90;;;;;;4984108;28;20042;-58
2023/01/29 09:08:26;;;;;;;35.80;26.23;;;3.80;99.90;;;;;;4984039;28;20254;-57
2023/01/29 09:10:51;;;;;;;32.25;23.90;;;4.00;99.90;;;;;;4984055;28;20483;-58
2023/01/29 09:13:17;;;;;;;37.70;27.42;;;3.60;99.90;;;;;;4983687;28;20535;-58
2023/01/29 09:15:43;;;;;;;42.65;30.48;;;4.60;99.90;;;;;;4983475;28;20049;-58
2023/01/29 09:18:08;;;;;;;39.65;31.48;;;4.50;99.90;;;;;;4966494;28;20109;-58
2023/01/29 09:20:36;;;;;;;37.95;31.33;;;4.00;99.90;;;;;;4983986;28;20398;-58
2023/01/29 09:23:04;;;;;;;39.10;30.52;;;3.40;99.90;;;;;;4983799;28;20050;-58
2023/01/29 09:25:30;;;;;;;38.22;30.33;;;4.10;99.90;;;;;;4983380;28;20054;-57
2023/01/29 09:27:55;;;;;;;39.42;31.60;;;3.40;99.90;;;;;;4985490;28;20125;-57
2023/01/29 09:30:21;;;;;;;40.30;32.92;;;4.10;99.90;;;;;;4987912;28;20070;-57
2023/01/29 09:32:47;;;;;;;41.90;32.08;;;3.80;99.90;;;;;;4987592;28;20046;-58
2023/01/29 09:35:13;;;;;;;43.20;31.90;;;3.40;99.90;;;;;;4970386;28;20035;-57
2023/01/29 09:37:38;;;;;;;42.08;33.85;;;3.40;99.90;;;;;;4987521;28;20058;-58
2023/01/29 09:40:05;;;;;;;43.90;33.95;;;3.90;99.90;;;;;;4986972;28;20043;-58
2023/01/29 09:42:40;;;;;;;38.33;25.77;;;3.40;99.90;;;;;;4987139;28;20477;-58
2023/01/29 09:45:16;;;;;;;42.83;31.95;;;4.20;99.90;;;;;;4988724;28;20046;-59
2023/01/29 09:47:43;;;;;;;39.78;28.73;;;4.00;99.90;;;;;;4989359;28;20042;-58
2023/01/29 09:50:20;;;;;;;46.60;34.13;;;3.90;99.90;;;;;;4989736;28;20456;-59
2023/01/29 09:52:57;;;;;;;41.70;29.55;;;4.30;99.90;;;;;;4989500;28;20042;-59
2023/01/29 09:55:35;;;;;;;41.47;33.78;;;4.30;99.90;;;;;;4990062;28;20053;-58
2023/01/29 09:58:40;;;;;;;43.42;32.70;;;3.60;99.90;;;;;;4988507;28;20647;-59
2023/01/29 10:01:14;;;;;;;40.95;32.42;;;5.10;99.90;;;;;;4971629;28;20403;-58
2023/01/29 10:03:51;;;;;;;39.78;29.08;;;3.70;99.90;;;;;;4989377;28;20089;-58
2023/01/29 10:06:22;;;;;;;42.80;31.70;;;4.30;99.90;;;;;;4989142;28;20419;-58
2023/01/29 10:09:25;;;;;;;40.28;24.58;;;3.60;99.90;;;;;;4970378;28;20042;-58
2023/01/29 10:12:06;;;;;;;37.78;24.92;;;4.00;99.90;;;;;;4986661;28;20078;-58
2023/01/29 10:14:46;;;;;;;40.88;30.25;;;3.70;99.90;;;;;;4969260;28;20137;-58
2023/01/29 10:17:42;;;;;;;41.47;31.42;;;3.70;99.90;;;;;;4986780;28;20070;-58
2023/01/29 10:20:22;;;;;;;39.70;31.30;;;4.20;99.90;;;;;;4987448;28;20070;-58
2023/01/29 10:22:51;;;;;;;42.83;31.48;;;3.70;99.90;;;;;;4965238;28;20045;-58
2023/01/29 10:25:20;;;;;;;41.35;26.92;;;3.80;99.90;;;;;;4981938;28;20047;-58
2023/01/29 10:27:55;;;;;;;43.75;32.58;;;4.60;99.90;;;;;;4971334;28;20030;-58
2023/01/29 10:30:27;;;;;;;39.50;28.02;;;3.80;99.90;;;;;;4966900;28;20343;-58
2023/01/29 10:32:58;;;;;;;34.47;21.70;;;4.00;99.90;;;;;;4967040;28;20042;-58
2023/01/29 10:35:38;;;;;;;43.38;30.70;;;3.90;99.90;;;;;;4980850;28;20046;-58
2023/01/29 10:38:34;;;;;;;42.85;32.03;;;4.50;99.90;;;;;;4985615;28;20038;-57
2023/01/29 10:41:14;;;;;;;42.33;27.92;;;4.60;99.90;;;;;;4966860;28;20046;-57
2023/01/29 10:43:59;;;;;;;42.67;31.05;;;4.10;99.90;;;;;;4965609;28;20061;-57
2023/01/29 10:46:24;;;;;;;42.27;30.10;;;4.20;99.90;;;;;;4966983;28;20133;-57
2023/01/29 10:49:05;;;;;;;44.00;30.10;;;4.20;99.90;;;;;;4948538;28;20492;-58
2023/01/29 10:51:49;;;;;;;45.20;30.90;;;4.50;99.90;;;;;;4981586;28;20046;-58
2023/01/29 10:54:36;;;;;;;42.78;32.15;;;4.50;99.90;;;;;;4948953;28;20054;-58
2023/01/29 10:57:18;;;;;;;44.78;32.60;;;4.20;99.90;;;;;;4964968;28;20122;-58
2023/01/29 10:59:49;;;;;;;42.63;32.60;;;3.80;99.90;;;;;;4965988;28;20093;-56
2023/01/29 11:02:20;;;;;;;43.80;32.55;;;4.50;99.90;;;;;;4981506;28;20054;-56
2023/01/29 11:04:46;;;;;;;43.00;31.13;;;4.40;99.90;;;;;;4965673;28;20063;-57
2023/01/29 11:07:15;;;;;;;41.78;28.45;;;4.60;99.90;;;;;;4948856;28;20050;-57
2023/01/29 11:09:59;;;;;;;44.08;31.00;;;3.90;99.90;;;;;;4966089;28;20049;-57
2023/01/29 11:12:29;;;;;;;45.65;32.15;;;4.50;99.90;;;;;;4964912;28;20058;-56
2023/01/29 11:15:23;;;;;;;46.35;32.95;;;3.70;99.90;;;;;;4966416;28;20423;-59
2023/01/29 11:18:02;;;;;;;52.72;35.65;;;4.40;99.90;;;;;;4967118;28;20043;-57
2023/01/29 11:20:29;;;;;;;51.22;36.28;;;4.50;99.90;;;;;;4967059;28;20520;-59
2023/01/29 11:22:55;;;;;;;48.50;35.25;;;4.20;99.90;;;;;;4978521;28;20050;-58
2023/01/29 11:25:21;;;;;;;52.70;36.50;;;4.50;99.90;;;;;;4985941;28;20049;-58
2023/01/29 11:28:01;;;;;;;50.30;34.90;;;3.80;99.90;;;;;;4985206;28;20042;-59
2023/01/29 11:30:36;;;;;;;50.13;32.50;;;4.30;99.90;;;;;;4988028;28;20073;-63
2023/01/29 11:33:22;;;;;;;45.55;30.55;;;4.10;99.90;;;;;;4986266;28;20042;-64
2023/01/29 11:35:48;;;;;;;43.85;29.25;;;4.10;99.90;;;;;;4985836;28;20046;-63
2023/01/29 11:38:23;;;;;;;43.00;27.02;;;4.40;99.90;;;;;;4968594;28;20104;-60
2023/01/29 11:40:49;;;;;;;45.38;31.08;;;4.20;99.90;;;;;;4985192;28;20094;-63
2023/01/29 11:43:19;;;;;;;48.33;30.83;;;4.40;99.90;;;;;;4985378;28;20125;-63
2023/01/29 11:45:46;;;;;;;47.45;29.17;;;4.60;99.90;;;;;;4985826;28;20081;-63
2023/01/29 11:48:18;;;;;;;47.20;30.00;;;4.40;99.90;;;;;;4985360;28;20039;-63
2023/01/29 11:50:51;;;;;;;50.25;35.47;;;4.10;99.90;;;;;;4984985;28;20061;-63
2023/01/29 11:53:23;;;;;;;52.28;34.10;;;3.80;99.90;;;;;;4984671;28;20077;-63
2023/01/29 11:55:50;;;;;;;53.67;36.83;;;4.40;99.90;;;;;;4985534;28;20453;-62
2023/01/29 11:58:26;;;;;;;51.50;34.47;;;4.50;99.90;;;;;;4985351;28;20518;-60
2023/01/29 12:00:54;;;;;;;53.40;36.75;;;4.60;99.90;;;;;;4985000;28;20046;-63
2023/01/29 12:03:28;;;;;;;49.67;35.08;;;3.90;99.90;;;;;;4967957;28;20133;-62
2023/01/29 12:06:01;;;;;;;54.78;38.10;;;4.30;99.90;;;;;;4968007;28;20088;-58
2023/01/29 12:08:36;;;;;;;57.05;37.00;;;4.40;99.90;;;;;;4968450;28;20309;-63
2023/01/29 12:11:23;;;;;;;48.10;30.23;;;3.80;99.90;;;;;;4985545;28;20101;-61
2023/01/29 12:13:54;;;;;;;52.45;35.08;;;3.60;99.90;;;;;;4984709;28;20463;-63
2023/01/29 12:16:51;;;;;;;55.25;37.17;;;4.60;99.90;;;;;;4985490;28;20073;-63
2023/01/29 12:19:39;;;;;;;52.45;36.75;;;3.70;99.90;;;;;;4985371;28;20038;-63
2023/01/29 12:22:19;;;;;;;58.63;39.55;;;3.90;99.90;;;;;;4984706;28;20458;-62
2023/01/29 12:24:54;;;;;;;46.42;30.02;;;4.70;99.90;;;;;;4984825;28;20061;-63
2023/01/29 12:27:24;;;;;;;46.67;31.50;;;4.30;99.90;;;;;;4983907;28;20047;-63
2023/01/29 12:30:13;;;;;;;56.70;37.50;;;3.60;99.90;;;;;;4985161;28;20065;-62
2023/01/29 12:33:10;;;;;;;56.08;38.17;;;4.00;99.90;;;;;;4984189;28;20054;-63
2023/01/29 12:35:46;;;;;;;47.03;30.83;;;3.70;99.90;;;;;;4967069;28;20053;-63
2023/01/29 12:38:19;;;;;;;55.88;36.63;;;3.90;99.90;;;;;;4984741;28;20046;-63
2023/01/29 12:41:04;;;;;;;54.88;37.78;;;4.30;99.90;;;;;;4984698;28;20550;-62
2023/01/29 12:43:39;;;;;;;57.58;37.33;;;4.20;99.90;;;;;;4966820;28;20054;-61
2023/01/29 12:46:23;;;;;;;54.38;35.72;;;4.30;99.90;;;;;;4984628;28;20042;-62
2023/01/29 12:48:49;;;;;;;62.55;33.75;;;4.60;99.90;;;;;;4984794;28;20058;-63
2023/01/29 12:51:20;;;;;;;55.45;36.47;;;4.50;99.90;;;;;;4984586;28;20034;-63
2023/01/29 12:53:52;;;;;;;49.15;33.47;;;4.50;99.90;;;;;;4984129;28;20050;-64
2023/01/29 12:56:41;;;;;;;56.00;38.97;;;4.50;99.90;;;;;;4984818;28;20337;-62
2023/01/29 12:59:16;;;;;;;53.05;34.20;;;4.10;99.90;;;;;;4966187;28;20042;-61
2023/01/29 13:02:15;;;;;;;54.55;39.10;;;4.00;99.90;;;;;;4984305;28;20082;-63
2023/01/29 13:04:56;;;;;;;48.58;35.45;;;3.80;99.90;;;;;;4974637;28;20065;-63
2023/01/29 13:07:31;;;;;;;49.72;32.70;;;4.70;99.90;;;;;;4983844;28;20121;-63
2023/01/29 13:10:04;;;;;;;48.22;33.70;;;4.30;99.90;;;;;;4950990;28;20049;-61
2023/01/29 13:12:32;;;;;;;40.85;28.88;;;4.80;99.90;;;;;;4983563;28;20061;-62
2023/01/29 13:15:05;;;;;;;44.17;29.20;;;4.80;99.90;;;;;;4984195;28;20054;-63
2023/01/29 13:17:42;;;;;;;41.78;30.23;;;4.40;99.90;;;;;;4984287;28;20086;-64
2023/01/29 13:20:30;;;;;;;33.80;24.77;;;3.90;99.90;;;;;;4983869;28;20058;-63
2023/01/29 13:23:03;;;;;;;38.25;29.60;;;4.50;99.90;;;;;;4984537;28;20129;-63
2023/01/29 13:25:29;;;;;;;40.45;28.73;;;4.30;99.90;;;;;;4984157;28;20043;-63
2023/01/29 13:27:54;;;;;;;32.67;21.75;;;4.80;99.90;;;;;;4983621;28;20060;-63